OIAH  Gachsaran Airport

Add Bookmark

Iran

Status
Operational
Latitude Longitude
30° 20' 15" N 50° 49' 40" E
30.337601 50.827999
Local (DST + 5) UTC (GMT + 4)
Oct 21, 2014 10:30 Oct 21, 2014 07:00
Sunrise-Sunset Local UTC
Begin Civil Twilight 05:47 02:17
Sunrise 06:11 02:41
Sunset 05:30 14:00
End Civil Twilight 05:55 14:25

Current Weather

METAR Observed VFR
OIAH 210600Z 10004KT 9999 TS FEW030CB SCT035 OVC090 26/06 Q1012 Tue, Oct 21, 2014 @ 06:00 UTC
(1 Hour ago)
Visual Flight Rules
Wind Visibility Clouds Conditions
100° at 4 knots (7 kph) 10 km or more
  • Few at 3,000' AGL
  • Scattered at 3,500' AGL
  • Overcast at 9,000' AGL
  • Thunderstorm
Temperatures Readings Precipitation
Current Temp 26°C (79°F)
Dewpoint 6°C (43°F)
Humidity 28%
Altimeter 29.88"Hg
Sea Level Pressure 1012mb
Field Elevation 2421.26'
None Recorded

Additional weather within a 92.6km radius of OIAH

Map ICAO Location
OISY 79.6km E (059°)

24 Hour Weather History

Loading
-

24 Hour Weather Graphs

Loading
-

CheckWX.com is intended as a tool to help pilots better visualize weather data. It is not intended as a substitute for an official weather briefing obtained from a Flight Service Station. CheckWX.com does not meet the FAA requirements for an official pre-flight weather briefing. Therefore, it's important that pilots still call and obtain an official FSS pre-flight weather briefing.